createdAt,value
2019-02-14T00:05:58.146Z,0.01
2019-02-14T00:15:58.149Z,0.00
2019-02-14T00:25:58.123Z,0.00
2019-02-14T00:35:58.108Z,0.00
2019-02-14T00:45:58.145Z,0.02
2019-02-14T00:55:57.984Z,0.00
2019-02-14T01:05:58.159Z,0.01
2019-02-14T01:15:58.073Z,0.00
2019-02-14T01:25:58.107Z,0.00
2019-02-14T01:35:58.065Z,0.00
2019-02-14T01:45:58.143Z,0.02
2019-02-14T01:55:58.139Z,0.00
2019-02-14T02:05:58.076Z,0.00
2019-02-14T02:15:58.142Z,0.00
2019-02-14T02:25:59.505Z,0.00
2019-02-14T02:36:00.415Z,0.05
2019-02-14T02:56:04.195Z,0.01
2019-02-14T03:06:10.199Z,0.00
2019-02-14T03:16:03.438Z,0.01
2019-02-14T03:26:03.534Z,0.00
2019-02-14T03:36:07.322Z,0.00
2019-02-14T03:46:03.633Z,0.00
2019-02-14T03:56:03.658Z,0.06
2019-02-14T04:06:03.369Z,0.00
2019-02-14T04:16:04.519Z,0.00
2019-02-14T04:26:03.493Z,0.00
2019-02-14T04:36:03.397Z,0.03
2019-02-14T04:46:03.482Z,0.00
2019-02-14T04:56:03.450Z,0.00
2019-02-14T05:06:03.404Z,0.00
2019-02-14T05:16:03.370Z,0.00
2019-02-14T05:26:03.389Z,0.00
2019-02-14T05:36:03.508Z,0.00
2019-02-14T05:46:03.405Z,0.00
2019-02-14T05:56:03.357Z,0.00
2019-02-14T06:06:03.490Z,0.00
2019-02-14T06:16:06.470Z,0.00
2019-02-14T06:26:03.430Z,0.00
2019-02-14T06:36:04.143Z,0.00
2019-02-14T06:46:03.532Z,0.00
2019-02-14T06:56:03.536Z,0.00
2019-02-14T07:06:03.487Z,0.00
2019-02-14T07:16:03.544Z,0.43
2019-02-14T07:26:03.506Z,0.42
2019-02-14T07:36:03.589Z,0.62
2019-02-14T07:46:03.537Z,0.35
2019-02-14T07:56:03.578Z,0.00
2019-02-14T08:06:03.453Z,0.00
2019-02-14T08:16:03.426Z,0.54
2019-02-14T08:26:10.649Z,0.11
2019-02-14T08:36:04.534Z,0.25
2019-02-14T08:46:03.392Z,0.77
2019-02-14T08:56:03.544Z,0.86
2019-02-14T09:06:03.654Z,0.71
2019-02-14T09:16:03.636Z,0.15
2019-02-14T09:26:03.377Z,0.53
2019-02-14T09:36:03.522Z,0.49
2019-02-14T09:46:03.604Z,0.68
2019-02-14T09:56:03.462Z,1.06
2019-02-14T10:06:03.772Z,0.66
2019-02-14T10:16:03.898Z,1.36
2019-02-14T10:26:04.016Z,1.06
2019-02-14T10:36:04.466Z,0.37
2019-02-14T10:46:03.604Z,0.76
2019-02-14T10:56:03.641Z,0.26
2019-02-14T11:06:03.493Z,0.86
2019-02-14T11:16:03.496Z,0.54
2019-02-14T11:26:03.402Z,0.50
2019-02-14T11:36:03.580Z,0.56
2019-02-14T11:46:03.445Z,0.77
2019-02-14T11:56:03.540Z,1.57
2019-02-14T12:06:03.594Z,0.47
2019-02-14T12:16:04.301Z,1.05
2019-02-14T12:26:05.509Z,0.42
2019-02-14T12:36:03.454Z,0.67
2019-02-14T12:46:04.403Z,0.54
2019-02-14T12:56:03.536Z,0.35
2019-02-14T13:06:03.475Z,0.42
2019-02-14T13:16:03.488Z,0.30
2019-02-14T13:26:03.537Z,0.66
2019-02-14T13:36:03.549Z,0.36
2019-02-14T13:46:03.473Z,0.11
2019-02-14T13:56:03.693Z,0.69
2019-02-14T14:06:03.671Z,0.52
2019-02-14T14:16:03.626Z,0.61
2019-02-14T14:26:03.891Z,0.72
2019-02-14T14:36:03.550Z,0.48
2019-02-14T14:46:03.576Z,0.72
2019-02-14T14:56:03.668Z,0.80
2019-02-14T15:06:03.547Z,1.64
2019-02-14T15:16:03.599Z,1.29
2019-02-14T15:26:03.656Z,0.64
2019-02-14T15:36:03.677Z,0.39
2019-02-14T15:46:03.711Z,0.37
2019-02-14T15:56:05.515Z,0.06
2019-02-14T16:26:30.571Z,0.17
2019-02-14T16:36:32.394Z,0.22
2019-02-14T16:46:31.181Z,0.00
2019-02-14T16:56:31.210Z,0.00
2019-02-14T17:06:30.239Z,0.00
2019-02-14T17:16:31.286Z,0.00
2019-02-14T17:26:30.238Z,0.00
2019-02-14T17:36:30.269Z,0.00
2019-02-14T17:46:30.399Z,0.06
2019-02-14T17:56:30.247Z,0.00
2019-02-14T18:06:30.314Z,0.00
2019-02-14T18:16:30.262Z,0.00
2019-02-14T18:26:30.418Z,0.05
2019-02-14T18:36:30.198Z,0.03
2019-02-14T18:46:30.171Z,0.00
2019-02-14T18:56:30.338Z,0.16
2019-02-14T19:06:30.546Z,0.05
2019-02-14T19:16:30.289Z,0.00
2019-02-14T19:26:30.467Z,0.00
2019-02-14T19:36:30.299Z,0.15
2019-02-14T19:46:30.442Z,0.00
2019-02-14T19:56:30.396Z,0.00
2019-02-14T20:06:30.300Z,0.02
2019-02-14T20:16:30.313Z,0.00
2019-02-14T20:26:30.295Z,0.00
2019-02-14T20:36:31.089Z,0.00
2019-02-14T20:46:30.250Z,0.00
2019-02-14T20:56:30.306Z,0.00
2019-02-14T21:06:31.331Z,0.04
2019-02-14T21:16:30.295Z,0.00
2019-02-14T21:26:30.186Z,0.06
2019-02-14T21:36:30.278Z,0.00
2019-02-14T21:46:30.225Z,0.00
2019-02-14T21:56:30.187Z,0.00
2019-02-14T22:06:30.212Z,0.01
2019-02-14T22:16:30.455Z,0.00
2019-02-14T22:26:30.504Z,0.00
2019-02-14T22:36:30.308Z,0.10
2019-02-14T22:46:30.279Z,0.09
2019-02-14T22:56:30.270Z,0.03
2019-02-14T23:06:31.782Z,0.00
2019-02-14T23:16:30.271Z,0.06
2019-02-14T23:26:30.363Z,0.11
2019-02-14T23:36:30.198Z,0.25
2019-02-14T23:46:30.231Z,0.11
2019-02-14T23:56:34.053Z,0.10
